sensor_id;sensor_type;location;lat;lon;timestamp;pressure;altitude;pressure_sealevel;temperature;humidity
9525;BME280;15940;48.734;9.112;2023-03-21T00:00:38;96786.44;;;8.37;74.05
9525;BME280;15940;48.734;9.112;2023-03-21T00:03:06;96796.00;;;8.38;73.58
9525;BME280;15940;48.734;9.112;2023-03-21T00:05:33;96796.47;;;8.37;74.18
9525;BME280;15940;48.734;9.112;2023-03-21T00:08:00;96796.00;;;8.38;74.20
9525;BME280;15940;48.734;9.112;2023-03-21T00:10:28;96796.47;;;8.37;74.14
9525;BME280;15940;48.734;9.112;2023-03-21T00:12:55;96791.34;;;8.39;74.35
9525;BME280;15940;48.734;9.112;2023-03-21T00:15:25;96786.72;;;8.39;74.76
9525;BME280;15940;48.734;9.112;2023-03-21T00:17:54;96794.81;;;8.39;75.04
9525;BME280;15940;48.734;9.112;2023-03-21T00:20:23;96788.19;;;8.40;75.51
9525;BME280;15940;48.734;9.112;2023-03-21T00:22:50;96776.84;;;8.36;75.22
9525;BME280;15940;48.734;9.112;2023-03-21T00:25:17;96770.97;;;8.38;75.10
9525;BME280;15940;48.734;9.112;2023-03-21T00:27:44;96776.84;;;8.36;74.67
9525;BME280;15940;48.734;9.112;2023-03-21T00:30:12;96776.84;;;8.36;74.52
9525;BME280;15940;48.734;9.112;2023-03-21T00:32:41;96772.47;;;8.39;74.79
9525;BME280;15940;48.734;9.112;2023-03-21T00:35:08;96760.66;;;8.36;74.57
9525;BME280;15940;48.734;9.112;2023-03-21T00:37:35;96763.81;;;8.35;74.79
9525;BME280;15940;48.734;9.112;2023-03-21T00:40:03;96762.41;;;8.39;75.09
9525;BME280;15940;48.734;9.112;2023-03-21T00:42:33;96771.91;;;8.35;75.25
9525;BME280;15940;48.734;9.112;2023-03-21T00:45:00;96749.47;;;8.28;74.80
9525;BME280;15940;48.734;9.112;2023-03-21T00:47:27;96752.16;;;8.28;75.03
9525;BME280;15940;48.734;9.112;2023-03-21T00:49:56;96756.06;;;8.27;75.02
9525;BME280;15940;48.734;9.112;2023-03-21T00:52:23;96753.25;;;8.22;74.76
9525;BME280;15940;48.734;9.112;2023-03-21T00:54:50;96745.63;;;8.20;74.99
9525;BME280;15940;48.734;9.112;2023-03-21T00:57:17;96737.28;;;8.18;74.73
9525;BME280;15940;48.734;9.112;2023-03-21T00:59:44;96755.41;;;8.18;75.46
9525;BME280;15940;48.734;9.112;2023-03-21T01:02:11;96745.84;;;8.17;75.27
9525;BME280;15940;48.734;9.112;2023-03-21T01:04:51;96740.59;;;8.13;74.76
9525;BME280;15940;48.734;9.112;2023-03-21T01:07:20;96733.84;;;8.18;75.39
9525;BME280;15940;48.734;9.112;2023-03-21T01:09:47;96733.84;;;8.18;75.57
9525;BME280;15940;48.734;9.112;2023-03-21T01:12:15;96733.84;;;8.18;76.06
9525;BME280;15940;48.734;9.112;2023-03-21T01:14:42;96741.81;;;8.12;75.46
9525;BME280;15940;48.734;9.112;2023-03-21T01:17:09;96736.88;;;8.11;75.23
9525;BME280;15940;48.734;9.112;2023-03-21T01:19:36;96740.81;;;8.10;76.29
9525;BME280;15940;48.734;9.112;2023-03-21T01:22:03;96734.66;;;8.09;75.46
9525;BME280;15940;48.734;9.112;2023-03-21T01:24:32;96728.81;;;8.11;76.13
9525;BME280;15940;48.734;9.112;2023-03-21T01:27:01;96722.66;;;8.10;76.26
9525;BME280;15940;48.734;9.112;2023-03-21T01:29:28;96731.97;;;8.09;75.95
9525;BME280;15940;48.734;9.112;2023-03-21T01:31:55;96727.78;;;8.08;75.61
9525;BME280;15940;48.734;9.112;2023-03-21T01:34:21;96731.22;;;8.09;75.57
9525;BME280;15940;48.734;9.112;2023-03-21T01:36:48;96732.44;;;8.08;75.68
9525;BME280;15940;48.734;9.112;2023-03-21T01:39:15;96729.25;;;8.09;75.93
9525;BME280;15940;48.734;9.112;2023-03-21T01:41:44;96727.50;;;8.06;76.16
9525;BME280;15940;48.734;9.112;2023-03-21T01:44:15;96723.78;;;8.03;75.95
9525;BME280;15940;48.734;9.112;2023-03-21T01:46:44;96727.69;;;8.02;75.84
9525;BME280;15940;48.734;9.112;2023-03-21T01:49:18;96723.50;;;8.01;75.53
9525;BME280;15940;48.734;9.112;2023-03-21T01:51:52;96718.38;;;8.03;76.66
9525;BME280;15940;48.734;9.112;2023-03-21T01:54:24;96714.28;;;8.08;76.81
9525;BME280;15940;48.734;9.112;2023-03-21T01:56:57;96716.63;;;8.00;76.26
9525;BME280;15940;48.734;9.112;2023-03-21T01:59:30;96712.16;;;7.97;76.30
9525;BME280;15940;48.734;9.112;2023-03-21T02:02:04;96709.72;;;7.99;76.04
9525;BME280;15940;48.734;9.112;2023-03-21T02:04:35;96706.03;;;7.97;75.70
9525;BME280;15940;48.734;9.112;2023-03-21T02:07:06;96717.81;;;7.99;76.99
9525;BME280;15940;48.734;9.112;2023-03-21T02:09:37;96719.78;;;7.99;76.75
9525;BME280;15940;48.734;9.112;2023-03-21T02:12:07;96706.66;;;7.92;76.63
9525;BME280;15940;48.734;9.112;2023-03-21T02:14:36;96708.88;;;7.93;77.00
9525;BME280;15940;48.734;9.112;2023-03-21T02:17:11;96700.53;;;7.91;76.83
9525;BME280;15940;48.734;9.112;2023-03-21T02:27:08;96698.47;;;7.86;77.24
9525;BME280;15940;48.734;9.112;2023-03-21T02:30:26;96703.31;;;7.82;76.57
9525;BME280;15940;48.734;9.112;2023-03-21T02:33:36;96705.25;;;7.82;76.67
9525;BME280;15940;48.734;9.112;2023-03-21T02:36:21;96698.38;;;7.81;78.05
9525;BME280;15940;48.734;9.112;2023-03-21T02:38:54;96693.72;;;7.81;78.08
9525;BME280;15940;48.734;9.112;2023-03-21T02:41:34;96688.81;;;7.80;77.59
9525;BME280;15940;48.734;9.112;2023-03-21T02:44:10;96691.66;;;7.76;77.61
9525;BME280;15940;48.734;9.112;2023-03-21T02:46:44;96692.41;;;7.77;78.19
9525;BME280;15940;48.734;9.112;2023-03-21T02:49:20;96683.03;;;7.72;77.78
9525;BME280;15940;48.734;9.112;2023-03-21T02:51:50;96691.66;;;7.76;78.47
9525;BME280;15940;48.734;9.112;2023-03-21T02:54:21;96694.56;;;7.72;78.39
9525;BME280;15940;48.734;9.112;2023-03-21T02:56:51;96696.69;;;7.68;78.02
9525;BME280;15940;48.734;9.112;2023-03-21T02:59:21;96689.53;;;7.65;78.62
9525;BME280;15940;48.734;9.112;2023-03-21T03:01:50;96680.88;;;7.61;78.44
9525;BME280;15940;48.734;9.112;2023-03-21T03:04:20;96684.13;;;7.65;78.76
9525;BME280;15940;48.734;9.112;2023-03-21T03:07:08;96683.84;;;7.63;78.18
9525;BME280;15940;48.734;9.112;2023-03-21T03:09:54;96679.47;;;7.66;78.37
9525;BME280;15940;48.734;9.112;2023-03-21T03:12:34;96678.72;;;7.65;78.44
9525;BME280;15940;48.734;9.112;2023-03-21T03:15:17;96681.44;;;7.65;78.26
9525;BME280;15940;48.734;9.112;2023-03-21T03:17:57;96686.66;;;7.69;78.22
9525;BME280;15940;48.734;9.112;2023-03-21T03:20:37;96679.47;;;7.66;77.21
9525;BME280;15940;48.734;9.112;2023-03-21T03:23:19;96684.72;;;7.69;77.43
9525;BME280;15940;48.734;9.112;2023-03-21T03:25:52;96686.47;;;7.72;77.47
9525;BME280;15940;48.734;9.112;2023-03-21T03:28:26;96693.06;;;7.71;77.47
9525;BME280;15940;48.734;9.112;2023-03-21T03:30:56;96684.03;;;7.74;78.03
9525;BME280;15940;48.734;9.112;2023-03-21T03:33:26;96679.88;;;7.73;78.02
9525;BME280;15940;48.734;9.112;2023-03-21T03:35:56;96676.22;;;7.77;77.92
9525;BME280;15940;48.734;9.112;2023-03-21T03:38:25;96673.09;;;7.78;78.27
9525;BME280;15940;48.734;9.112;2023-03-21T03:40:58;96674.75;;;7.76;77.34
9525;BME280;15940;48.734;9.112;2023-03-21T03:43:34;96672.53;;;7.74;77.65
9525;BME280;15940;48.734;9.112;2023-03-21T03:46:10;96662.19;;;7.72;77.40
9525;BME280;15940;48.734;9.112;2023-03-21T03:48:43;96666.84;;;7.72;76.99
9525;BME280;15940;48.734;9.112;2023-03-21T03:51:18;96658.75;;;7.72;76.58
9525;BME280;15940;48.734;9.112;2023-03-21T03:53:51;96655.06;;;7.69;76.28
9525;BME280;15940;48.734;9.112;2023-03-21T03:56:21;96655.22;;;7.66;77.00
9525;BME280;15940;48.734;9.112;2023-03-21T03:58:50;96661.06;;;7.64;76.30
9525;BME280;15940;48.734;9.112;2023-03-21T04:01:17;96652.81;;;7.68;77.45
9525;BME280;15940;48.734;9.112;2023-03-21T04:03:47;96655.22;;;7.66;77.23
9525;BME280;15940;48.734;9.112;2023-03-21T04:06:15;96651.78;;;7.65;77.15
9525;BME280;15940;48.734;9.112;2023-03-21T04:08:42;96651.50;;;7.63;78.02
9525;BME280;15940;48.734;9.112;2023-03-21T04:11:11;96651.69;;;7.60;77.60
9525;BME280;15940;48.734;9.112;2023-03-21T04:13:40;96654.56;;;7.56;77.81
9525;BME280;15940;48.734;9.112;2023-03-21T04:16:08;96659.69;;;7.54;77.84
9525;BME280;15940;48.734;9.112;2023-03-21T04:18:36;96655.03;;;7.55;78.98
9525;BME280;15940;48.734;9.112;2023-03-21T04:21:08;96654.19;;;7.49;78.33
9525;BME280;15940;48.734;9.112;2023-03-21T04:23:35;96648.97;;;7.45;78.94
9525;BME280;15940;48.734;9.112;2023-03-21T04:26:03;96660.09;;;7.38;79.00
9525;BME280;15940;48.734;9.112;2023-03-21T04:28:31;96653.16;;;7.31;79.14
9525;BME280;15940;48.734;9.112;2023-03-21T04:31:04;96653.50;;;7.24;79.17
9525;BME280;15940;48.734;9.112;2023-03-21T04:33:31;96654.31;;;7.15;78.88
9525;BME280;15940;48.734;9.112;2023-03-21T04:36:04;96657.34;;;7.08;79.04
9525;BME280;15940;48.734;9.112;2023-03-21T04:38:31;96653.69;;;6.97;79.28
9525;BME280;15940;48.734;9.112;2023-03-21T04:40:59;96652.28;;;6.86;79.07
9525;BME280;15940;48.734;9.112;2023-03-21T04:43:26;96652.78;;;6.76;79.26
9525;BME280;15940;48.734;9.112;2023-03-21T04:45:54;96654.03;;;6.66;79.41
9525;BME280;15940;48.734;9.112;2023-03-21T04:48:22;96656.19;;;6.52;79.52
9525;BME280;15940;48.734;9.112;2023-03-21T04:50:50;96655.81;;;6.45;80.12
9525;BME280;15940;48.734;9.112;2023-03-21T04:53:18;96660.88;;;6.43;81.22
9525;BME280;15940;48.734;9.112;2023-03-21T04:55:45;96650.28;;;6.39;81.25
9525;BME280;15940;48.734;9.112;2023-03-21T04:58:11;96654.34;;;6.35;82.39
9525;BME280;15940;48.734;9.112;2023-03-21T05:00:38;96654.94;;;6.39;83.41
9525;BME280;15940;48.734;9.112;2023-03-21T05:03:06;96658.06;;;6.37;82.44
9525;BME280;15940;48.734;9.112;2023-03-21T05:05:36;96646.72;;;6.33;82.36
9525;BME280;15940;48.734;9.112;2023-03-21T05:08:04;96645.22;;;6.32;82.88
9525;BME280;15940;48.734;9.112;2023-03-21T05:10:31;96644.03;;;6.33;82.80
9525;BME280;15940;48.734;9.112;2023-03-21T05:12:59;96643.91;;;6.27;82.60
9525;BME280;15940;48.734;9.112;2023-03-21T05:15:26;96650.94;;;6.25;82.62
9525;BME280;15940;48.734;9.112;2023-03-21T05:17:53;96642.00;;;6.19;82.38
9525;BME280;15940;48.734;9.112;2023-03-21T05:20:20;96649.94;;;6.13;82.52
9525;BME280;15940;48.734;9.112;2023-03-21T05:22:48;96654.13;;;6.14;83.08
9525;BME280;15940;48.734;9.112;2023-03-21T05:25:17;96658.16;;;6.19;82.86
9525;BME280;15940;48.734;9.112;2023-03-21T05:27:58;96651.09;;;6.21;83.71
9525;BME280;15940;48.734;9.112;2023-03-21T05:30:27;96651.44;;;6.14;83.03
9525;BME280;15940;48.734;9.112;2023-03-21T05:32:54;96658.75;;;6.14;83.37
9525;BME280;15940;48.734;9.112;2023-03-21T05:35:21;96650.69;;;6.14;83.34
9525;BME280;15940;48.734;9.112;2023-03-21T05:37:49;96657.88;;;6.17;83.78
9525;BME280;15940;48.734;9.112;2023-03-21T05:40:18;96661.88;;;6.21;83.21
9525;BME280;15940;48.734;9.112;2023-03-21T05:42:45;96665.44;;;6.27;83.43
9525;BME280;15940;48.734;9.112;2023-03-21T05:45:12;96656.16;;;6.28;82.97
9525;BME280;15940;48.734;9.112;2023-03-21T05:47:39;96660.75;;;6.37;82.54
9525;BME280;15940;48.734;9.112;2023-03-21T05:50:08;96662.50;;;6.49;83.33
9525;BME280;15940;48.734;9.112;2023-03-21T05:52:35;96668.00;;;6.55;83.04
9525;BME280;15940;48.734;9.112;2023-03-21T05:55:05;96661.13;;;6.54;81.78
9525;BME280;15940;48.734;9.112;2023-03-21T05:57:32;96666.91;;;6.62;81.41
9525;BME280;15940;48.734;9.112;2023-03-21T06:00:05;96666.41;;;6.72;81.57
9525;BME280;15940;48.734;9.112;2023-03-21T06:02:33;96665.78;;;6.77;81.00
9525;BME280;15940;48.734;9.112;2023-03-21T06:05:00;96665.44;;;6.84;80.49
9525;BME280;15940;48.734;9.112;2023-03-21T06:07:27;96671.84;;;6.87;79.92
9525;BME280;15940;48.734;9.112;2023-03-21T06:09:54;96664.81;;;6.90;79.78
9525;BME280;15940;48.734;9.112;2023-03-21T06:12:22;96669.84;;;6.97;80.14
9525;BME280;15940;48.734;9.112;2023-03-21T06:14:49;96673.88;;;7.01;80.31
9525;BME280;15940;48.734;9.112;2023-03-21T06:17:16;96672.66;;;7.02;79.30
9525;BME280;15940;48.734;9.112;2023-03-21T06:19:43;96670.53;;;7.06;79.12
9525;BME280;15940;48.734;9.112;2023-03-21T06:22:10;96673.34;;;7.12;79.13
9525;BME280;15940;48.734;9.112;2023-03-21T06:24:37;96667.66;;;7.10;78.64
9525;BME280;15940;48.734;9.112;2023-03-21T06:27:04;96667.84;;;7.06;78.96
9525;BME280;15940;48.734;9.112;2023-03-21T06:29:32;96664.22;;;7.09;79.52
9525;BME280;15940;48.734;9.112;2023-03-21T06:32:00;96673.78;;;7.10;79.10
9525;BME280;15940;48.734;9.112;2023-03-21T06:34:27;96669.44;;;7.13;79.53
9525;BME280;15940;48.734;9.112;2023-03-21T06:36:53;96664.06;;;7.13;80.15
9525;BME280;15940;48.734;9.112;2023-03-21T06:39:20;96669.72;;;7.15;79.42
9525;BME280;15940;48.734;9.112;2023-03-21T06:41:47;96655.63;;;7.20;79.40
9525;BME280;15940;48.734;9.112;2023-03-21T06:44:14;96659.16;;;7.26;78.49
9525;BME280;15940;48.734;9.112;2023-03-21T06:46:42;96655.38;;;7.48;78.31
9525;BME280;15940;48.734;9.112;2023-03-21T06:49:09;96664.69;;;7.76;77.51
9525;BME280;15940;48.734;9.112;2023-03-21T06:51:36;96663.41;;;8.01;76.31
9525;BME280;15940;48.734;9.112;2023-03-21T06:54:03;96662.09;;;8.11;74.78
9525;BME280;15940;48.734;9.112;2023-03-21T06:56:30;96650.09;;;8.27;74.84
9525;BME280;15940;48.734;9.112;2023-03-21T06:58:57;96651.63;;;8.34;74.17
9525;BME280;15940;48.734;9.112;2023-03-21T07:01:25;96657.56;;;8.52;73.59
9525;BME280;15940;48.734;9.112;2023-03-21T07:03:53;96653.78;;;8.79;72.75
9525;BME280;15940;48.734;9.112;2023-03-21T07:06:22;96659.00;;;9.03;72.15
9525;BME280;15940;48.734;9.112;2023-03-21T07:08:51;96656.50;;;9.20;69.97
9525;BME280;15940;48.734;9.112;2023-03-21T07:11:18;96653.28;;;9.42;70.36
9525;BME280;15940;48.734;9.112;2023-03-21T07:13:46;96647.03;;;9.56;70.10
9525;BME280;15940;48.734;9.112;2023-03-21T07:16:14;96645.22;;;9.73;69.82
9525;BME280;15940;48.734;9.112;2023-03-21T07:18:42;96648.59;;;9.94;69.00
9525;BME280;15940;48.734;9.112;2023-03-21T07:21:10;96646.81;;;10.17;66.98
9525;BME280;15940;48.734;9.112;2023-03-21T07:23:37;96644.44;;;10.25;66.61
9525;BME280;15940;48.734;9.112;2023-03-21T07:26:05;96651.16;;;10.35;64.90
9525;BME280;15940;48.734;9.112;2023-03-21T07:28:32;96647.75;;;10.40;65.76
9525;BME280;15940;48.734;9.112;2023-03-21T07:31:01;96651.47;;;10.48;65.02
9525;BME280;15940;48.734;9.112;2023-03-21T07:33:29;96653.03;;;10.61;65.95
9525;BME280;15940;48.734;9.112;2023-03-21T07:35:57;96655.47;;;11.01;63.91
9525;BME280;15940;48.734;9.112;2023-03-21T07:38:26;96646.03;;;11.56;62.84
9525;BME280;15940;48.734;9.112;2023-03-21T07:40:57;96650.06;;;12.17;60.18
9525;BME280;15940;48.734;9.112;2023-03-21T07:43:24;96651.13;;;13.00;58.79
9525;BME280;15940;48.734;9.112;2023-03-21T07:45:55;96652.47;;;13.34;54.01
9525;BME280;15940;48.734;9.112;2023-03-21T07:48:22;96652.75;;;13.31;55.54
9525;BME280;15940;48.734;9.112;2023-03-21T07:50:49;96646.03;;;13.84;55.42
9525;BME280;15940;48.734;9.112;2023-03-21T07:53:16;96647.13;;;14.00;53.51
9525;BME280;15940;48.734;9.112;2023-03-21T07:55:48;96652.66;;;13.89;52.59
9525;BME280;15940;48.734;9.112;2023-03-21T07:58:17;96648.13;;;14.03;53.85
9525;BME280;15940;48.734;9.112;2023-03-21T08:00:44;96654.44;;;14.16;53.76
9525;BME280;15940;48.734;9.112;2023-03-21T08:03:11;96646.44;;;13.94;53.07
9525;BME280;15940;48.734;9.112;2023-03-21T08:05:38;96655.91;;;13.46;53.99
9525;BME280;15940;48.734;9.112;2023-03-21T08:08:06;96647.00;;;12.82;54.35
9525;BME280;15940;48.734;9.112;2023-03-21T08:10:34;96652.69;;;12.67;56.36
9525;BME280;15940;48.734;9.112;2023-03-21T08:13:03;96650.38;;;13.05;56.12
9525;BME280;15940;48.734;9.112;2023-03-21T08:15:30;96650.41;;;12.99;53.74
9525;BME280;15940;48.734;9.112;2023-03-21T08:17:58;96649.84;;;13.06;53.85
9525;BME280;15940;48.734;9.112;2023-03-21T08:20:25;96641.03;;;12.83;54.38
9525;BME280;15940;48.734;9.112;2023-03-21T08:22:52;96641.94;;;13.20;53.92
9525;BME280;15940;48.734;9.112;2023-03-21T08:25:21;96649.25;;;13.36;53.09
9525;BME280;15940;48.734;9.112;2023-03-21T08:27:49;96648.81;;;13.26;51.11
9525;BME280;15940;48.734;9.112;2023-03-21T08:30:21;96637.72;;;13.07;52.89
9525;BME280;15940;48.734;9.112;2023-03-21T08:32:48;96637.84;;;13.43;52.04
9525;BME280;15940;48.734;9.112;2023-03-21T08:35:18;96639.56;;;13.87;50.05
9525;BME280;15940;48.734;9.112;2023-03-21T08:37:45;96635.59;;;14.73;49.59
9525;BME280;15940;48.734;9.112;2023-03-21T08:40:15;96634.34;;;14.74;48.59
9525;BME280;15940;48.734;9.112;2023-03-21T08:42:43;96627.88;;;14.77;48.25
9525;BME280;15940;48.734;9.112;2023-03-21T08:45:12;96623.84;;;14.59;47.48
9525;BME280;15940;48.734;9.112;2023-03-21T08:47:41;96623.09;;;14.83;48.15
9525;BME280;15940;48.734;9.112;2023-03-21T08:50:17;96620.22;;;15.37;46.31
9525;BME280;15940;48.734;9.112;2023-03-21T08:52:44;96623.38;;;16.11;42.89
9525;BME280;15940;48.734;9.112;2023-03-21T08:55:12;96627.56;;;15.80;43.65
9525;BME280;15940;48.734;9.112;2023-03-21T08:57:40;96622.69;;;15.92;43.27
9525;BME280;15940;48.734;9.112;2023-03-21T09:00:10;96624.88;;;16.25;43.79
9525;BME280;15940;48.734;9.112;2023-03-21T09:02:41;96621.19;;;16.23;42.42
9525;BME280;15940;48.734;9.112;2023-03-21T09:05:09;96609.88;;;16.59;42.82
9525;BME280;15940;48.734;9.112;2023-03-21T09:07:38;96619.16;;;16.69;42.77
9525;BME280;15940;48.734;9.112;2023-03-21T09:10:08;96612.88;;;17.34;41.07
9525;BME280;15940;48.734;9.112;2023-03-21T09:12:36;96609.03;;;17.17;42.10
9525;BME280;15940;48.734;9.112;2023-03-21T09:15:04;96620.69;;;17.64;42.43
9525;BME280;15940;48.734;9.112;2023-03-21T09:17:32;96620.97;;;17.40;40.29
9525;BME280;15940;48.734;9.112;2023-03-21T09:20:00;96627.78;;;16.86;40.12
9525;BME280;15940;48.734;9.112;2023-03-21T09:22:36;96620.91;;;16.66;41.23
9525;BME280;15940;48.734;9.112;2023-03-21T09:25:04;96617.31;;;16.45;39.73
9525;BME280;15940;48.734;9.112;2023-03-21T09:30:00;96624.84;;;16.12;42.43
9525;BME280;15940;48.734;9.112;2023-03-21T09:32:28;96625.25;;;16.16;42.80
9525;BME280;15940;48.734;9.112;2023-03-21T09:34:55;96621.28;;;16.17;42.33
9525;BME280;15940;48.734;9.112;2023-03-21T09:37:22;96613.66;;;16.55;41.79
9525;BME280;15940;48.734;9.112;2023-03-21T09:39:49;96612.31;;;17.15;43.65
9525;BME280;15940;48.734;9.112;2023-03-21T09:42:27;96610.47;;;17.31;40.14
9525;BME280;15940;48.734;9.112;2023-03-21T09:45:11;96611.13;;;17.92;42.82
9525;BME280;15940;48.734;9.112;2023-03-21T09:47:44;96600.69;;;17.90;41.21
9525;BME280;15940;48.734;9.112;2023-03-21T09:50:17;96602.50;;;17.54;41.58
9525;BME280;15940;48.734;9.112;2023-03-21T09:52:50;96602.97;;;17.45;41.68
9525;BME280;15940;48.734;9.112;2023-03-21T09:55:21;96598.16;;;17.24;43.25
9525;BME280;15940;48.734;9.112;2023-03-21T09:58:00;96599.69;;;16.99;42.23
9525;BME280;15940;48.734;9.112;2023-03-21T10:00:35;96597.50;;;17.45;42.13
9525;BME280;15940;48.734;9.112;2023-03-21T10:03:05;96588.66;;;17.73;41.15
9525;BME280;15940;48.734;9.112;2023-03-21T10:05:41;96596.44;;;17.68;40.53
9525;BME280;15940;48.734;9.112;2023-03-21T10:08:15;96596.19;;;17.80;42.56
9525;BME280;15940;48.734;9.112;2023-03-21T10:10:48;96588.09;;;18.16;41.27
9525;BME280;15940;48.734;9.112;2023-03-21T10:13:20;96592.59;;;17.51;40.27
9525;BME280;15940;48.734;9.112;2023-03-21T10:15:49;96586.44;;;17.37;40.23
9525;BME280;15940;48.734;9.112;2023-03-21T10:18:21;96583.00;;;17.57;40.85
9525;BME280;15940;48.734;9.112;2023-03-21T10:20:49;96587.31;;;17.87;38.82
9525;BME280;15940;48.734;9.112;2023-03-21T10:23:21;96575.25;;;18.32;39.03
9525;BME280;15940;48.734;9.112;2023-03-21T10:25:53;96591.06;;;18.46;39.36
9525;BME280;15940;48.734;9.112;2023-03-21T10:28:26;96583.94;;;18.43;38.58
9525;BME280;15940;48.734;9.112;2023-03-21T10:30:57;96569.84;;;18.18;36.31
9525;BME280;15940;48.734;9.112;2023-03-21T10:33:26;96581.91;;;17.74;40.49
9525;BME280;15940;48.734;9.112;2023-03-21T10:35:57;96575.00;;;17.25;39.20
9525;BME280;15940;48.734;9.112;2023-03-21T10:40:54;96578.31;;;16.44;43.01
9525;BME280;15940;48.734;9.112;2023-03-21T10:43:34;96580.53;;;16.46;43.04
9525;BME280;15940;48.734;9.112;2023-03-21T10:46:08;96569.28;;;16.76;44.07
9525;BME280;15940;48.734;9.112;2023-03-21T10:48:39;96567.88;;;17.09;42.55
9525;BME280;15940;48.734;9.112;2023-03-21T10:51:07;96565.06;;;17.01;42.80
9525;BME280;15940;48.734;9.112;2023-03-21T10:53:38;96565.81;;;16.62;41.70
9525;BME280;15940;48.734;9.112;2023-03-21T10:56:10;96575.78;;;16.33;42.84
9525;BME280;15940;48.734;9.112;2023-03-21T10:58:41;96575.13;;;16.27;43.28
9525;BME280;15940;48.734;9.112;2023-03-21T11:01:14;96580.06;;;16.02;42.15
9525;BME280;15940;48.734;9.112;2023-03-21T11:03:46;96575.38;;;16.42;43.49
9525;BME280;15940;48.734;9.112;2023-03-21T11:06:21;96569.88;;;16.29;44.36
9525;BME280;15940;48.734;9.112;2023-03-21T11:08:53;96569.69;;;16.67;41.99
9525;BME280;15940;48.734;9.112;2023-03-21T11:11:25;96564.56;;;16.90;41.74
9525;BME280;15940;48.734;9.112;2023-03-21T11:13:58;96567.50;;;16.78;41.01
9525;BME280;15940;48.734;9.112;2023-03-21T11:16:31;96563.81;;;16.89;38.50
9525;BME280;15940;48.734;9.112;2023-03-21T11:19:12;96556.78;;;16.80;36.50
9525;BME280;15940;48.734;9.112;2023-03-21T11:21:39;96556.78;;;16.80;39.75
9525;BME280;15940;48.734;9.112;2023-03-21T11:24:12;96568.75;;;16.91;37.68
9525;BME280;15940;48.734;9.112;2023-03-21T11:26:43;96557.94;;;16.72;36.96
9525;BME280;15940;48.734;9.112;2023-03-21T11:29:28;96556.66;;;16.60;40.16
9525;BME280;15940;48.734;9.112;2023-03-21T11:32:08;96560.88;;;16.61;40.57
9525;BME280;15940;48.734;9.112;2023-03-21T11:34:44;96553.59;;;16.76;42.07
9525;BME280;15940;48.734;9.112;2023-03-21T11:37:20;96556.34;;;16.90;39.85
9525;BME280;15940;48.734;9.112;2023-03-21T11:39:55;96546.38;;;16.79;41.92
9525;BME280;15940;48.734;9.112;2023-03-21T11:42:30;96553.81;;;16.92;41.50
9525;BME280;15940;48.734;9.112;2023-03-21T11:45:09;96547.59;;;16.65;41.33
9525;BME280;15940;48.734;9.112;2023-03-21T11:47:36;96549.19;;;16.47;41.73
9525;BME280;15940;48.734;9.112;2023-03-21T11:50:26;96540.69;;;16.50;43.43
9525;BME280;15940;48.734;9.112;2023-03-21T11:53:13;96531.72;;;16.76;42.88
9525;BME280;15940;48.734;9.112;2023-03-21T11:58:54;96527.66;;;16.70;42.54
9525;BME280;15940;48.734;9.112;2023-03-21T12:01:33;96528.03;;;16.47;42.93
9525;BME280;15940;48.734;9.112;2023-03-21T12:04:14;96521.22;;;16.54;44.64
9525;BME280;15940;48.734;9.112;2023-03-21T12:06:48;96514.28;;;16.26;42.02
9525;BME280;15940;48.734;9.112;2023-03-21T12:09:36;96519.03;;;16.39;44.34
9525;BME280;15940;48.734;9.112;2023-03-21T12:12:21;96509.66;;;16.21;40.69
9525;BME280;15940;48.734;9.112;2023-03-21T12:15:00;96509.97;;;16.05;42.04
9525;BME280;15940;48.734;9.112;2023-03-21T12:17:40;96508.28;;;16.02;41.98
9525;BME280;15940;48.734;9.112;2023-03-21T12:20:20;96502.19;;;16.22;42.13
9525;BME280;15940;48.734;9.112;2023-03-21T12:23:00;96506.16;;;16.47;43.48
9525;BME280;15940;48.734;9.112;2023-03-21T12:25:32;96499.13;;;16.52;40.62
9525;BME280;15940;48.734;9.112;2023-03-21T12:28:17;96492.84;;;16.44;41.63
9525;BME280;15940;48.734;9.112;2023-03-21T12:30:56;96489.38;;;16.43;41.81
9525;BME280;15940;48.734;9.112;2023-03-21T12:33:52;96484.19;;;16.53;40.73
9525;BME280;15940;48.734;9.112;2023-03-21T12:36:36;96485.22;;;16.76;42.69
9525;BME280;15940;48.734;9.112;2023-03-21T12:39:20;96474.09;;;17.08;40.41
9525;BME280;15940;48.734;9.112;2023-03-21T12:42:10;96472.72;;;17.36;41.85
9525;BME280;15940;48.734;9.112;2023-03-21T12:44:43;96470.09;;;17.30;38.09
9525;BME280;15940;48.734;9.112;2023-03-21T12:47:16;96473.78;;;17.33;39.63
9525;BME280;15940;48.734;9.112;2023-03-21T12:49:48;96460.16;;;17.20;36.60
9525;BME280;15940;48.734;9.112;2023-03-21T12:52:22;96471.50;;;17.24;38.58
9525;BME280;15940;48.734;9.112;2023-03-21T12:54:52;96472.50;;;17.34;36.53
9525;BME280;15940;48.734;9.112;2023-03-21T12:57:25;96457.75;;;17.58;35.87
9525;BME280;15940;48.734;9.112;2023-03-21T13:00:00;96458.94;;;17.49;34.13
9525;BME280;15940;48.734;9.112;2023-03-21T13:05:15;96456.03;;;17.26;36.41
9525;BME280;15940;48.734;9.112;2023-03-21T13:07:49;96456.94;;;17.08;35.23
9525;BME280;15940;48.734;9.112;2023-03-21T13:10:20;96459.66;;;16.87;35.48
9525;BME280;15940;48.734;9.112;2023-03-21T13:13:00;96447.84;;;16.92;35.63
9525;BME280;15940;48.734;9.112;2023-03-21T13:15:46;96453.25;;;17.05;36.01
9525;BME280;15940;48.734;9.112;2023-03-21T13:18:29;96450.66;;;17.21;36.05
9525;BME280;15940;48.734;9.112;2023-03-21T13:21:03;96451.69;;;17.31;38.77
9525;BME280;15940;48.734;9.112;2023-03-21T13:23:37;96445.81;;;17.27;34.05
9525;BME280;15940;48.734;9.112;2023-03-21T13:26:08;96443.34;;;17.36;39.42
9525;BME280;15940;48.734;9.112;2023-03-21T13:28:38;96446.06;;;17.57;33.74
9525;BME280;15940;48.734;9.112;2023-03-21T13:31:18;96444.97;;;17.60;35.30
9525;BME280;15940;48.734;9.112;2023-03-21T13:33:48;96443.66;;;17.75;32.21
9525;BME280;15940;48.734;9.112;2023-03-21T13:36:23;96444.72;;;17.51;33.45
9525;BME280;15940;48.734;9.112;2023-03-21T13:38:53;96429.63;;;17.57;34.11
9525;BME280;15940;48.734;9.112;2023-03-21T13:41:30;96434.19;;;17.55;34.36
9525;BME280;15940;48.734;9.112;2023-03-21T13:44:15;96420.81;;;17.30;33.56
9525;BME280;15940;48.734;9.112;2023-03-21T13:46:53;96416.81;;;17.10;35.64
9525;BME280;15940;48.734;9.112;2023-03-21T13:49:33;96418.63;;;17.29;35.82
9525;BME280;15940;48.734;9.112;2023-03-21T13:52:25;96421.09;;;17.40;35.01
9525;BME280;15940;48.734;9.112;2023-03-21T13:54:54;96417.09;;;17.41;36.09
9525;BME280;15940;48.734;9.112;2023-03-21T13:57:36;96410.88;;;17.20;33.73